sensor_id;sensor_type;location;lat;lon;timestamp;P1;durP1;ratioP1;P2;durP2;ratioP2
26588;SDS011;14235;48.532;8.722;2023-07-20T00:02:14;3.47;;;2.88;;
26588;SDS011;14235;48.532;8.722;2023-07-20T00:04:40;3.58;;;2.65;;
26588;SDS011;14235;48.532;8.722;2023-07-20T00:07:05;2.55;;;2.35;;
26588;SDS011;14235;48.532;8.722;2023-07-20T00:09:31;2.55;;;2.30;;
26588;SDS011;14235;48.532;8.722;2023-07-20T00:11:56;3.20;;;2.90;;
26588;SDS011;14235;48.532;8.722;2023-07-20T00:14:24;2.70;;;2.50;;
26588;SDS011;14235;48.532;8.722;2023-07-20T00:16:50;2.67;;;2.45;;
26588;SDS011;14235;48.532;8.722;2023-07-20T00:19:24;3.92;;;2.80;;
26588;SDS011;14235;48.532;8.722;2023-07-20T00:21:51;2.63;;;2.42;;
26588;SDS011;14235;48.532;8.722;2023-07-20T00:24:17;2.85;;;2.55;;
26588;SDS011;14235;48.532;8.722;2023-07-20T00:26:43;3.17;;;2.30;;
26588;SDS011;14235;48.532;8.722;2023-07-20T00:29:08;3.88;;;2.70;;
26588;SDS011;14235;48.532;8.722;2023-07-20T00:31:34;2.92;;;2.63;;
26588;SDS011;14235;48.532;8.722;2023-07-20T00:34:02;2.65;;;2.30;;
26588;SDS011;14235;48.532;8.722;2023-07-20T00:36:28;3.00;;;2.78;;
26588;SDS011;14235;48.532;8.722;2023-07-20T00:38:53;3.30;;;2.67;;
26588;SDS011;14235;48.532;8.722;2023-07-20T00:41:19;3.55;;;2.40;;
26588;SDS011;14235;48.532;8.722;2023-07-20T00:43:45;4.22;;;2.45;;
26588;SDS011;14235;48.532;8.722;2023-07-20T00:46:10;2.70;;;2.50;;
26588;SDS011;14235;48.532;8.722;2023-07-20T00:48:37;2.90;;;2.70;;
26588;SDS011;14235;48.532;8.722;2023-07-20T00:51:03;2.63;;;2.42;;
26588;SDS011;14235;48.532;8.722;2023-07-20T00:53:29;3.22;;;2.70;;
26588;SDS011;14235;48.532;8.722;2023-07-20T00:55:55;3.97;;;2.67;;
26588;SDS011;14235;48.532;8.722;2023-07-20T00:58:20;2.80;;;2.30;;
26588;SDS011;14235;48.532;8.722;2023-07-20T01:00:46;3.72;;;2.88;;
26588;SDS011;14235;48.532;8.722;2023-07-20T01:03:12;3.25;;;2.90;;
26588;SDS011;14235;48.532;8.722;2023-07-20T01:08:43;5.60;;;2.78;;
26588;SDS011;14235;48.532;8.722;2023-07-20T01:14:21;3.83;;;2.72;;
26588;SDS011;14235;48.532;8.722;2023-07-20T01:16:49;4.85;;;2.92;;
26588;SDS011;14235;48.532;8.722;2023-07-20T01:19:17;2.95;;;2.65;;
26588;SDS011;14235;48.532;8.722;2023-07-20T01:24:34;2.95;;;2.75;;
26588;SDS011;14235;48.532;8.722;2023-07-20T01:27:04;3.72;;;2.67;;
26588;SDS011;14235;48.532;8.722;2023-07-20T01:32:29;3.10;;;2.83;;
26588;SDS011;14235;48.532;8.722;2023-07-20T01:34:56;3.15;;;2.80;;
26588;SDS011;14235;48.532;8.722;2023-07-20T01:37:23;3.60;;;2.70;;
26588;SDS011;14235;48.532;8.722;2023-07-20T01:39:53;3.00;;;2.70;;
26588;SDS011;14235;48.532;8.722;2023-07-20T01:42:22;4.93;;;2.80;;
26588;SDS011;14235;48.532;8.722;2023-07-20T01:44:52;5.03;;;3.20;;
26588;SDS011;14235;48.532;8.722;2023-07-20T01:47:18;3.20;;;3.00;;
26588;SDS011;14235;48.532;8.722;2023-07-20T01:49:44;3.63;;;2.75;;
26588;SDS011;14235;48.532;8.722;2023-07-20T01:52:10;2.92;;;2.58;;
26588;SDS011;14235;48.532;8.722;2023-07-20T01:54:35;6.88;;;2.90;;
26588;SDS011;14235;48.532;8.722;2023-07-20T01:57:01;3.25;;;2.70;;
26588;SDS011;14235;48.532;8.722;2023-07-20T01:59:29;3.33;;;2.70;;
26588;SDS011;14235;48.532;8.722;2023-07-20T02:01:54;3.63;;;2.67;;
26588;SDS011;14235;48.532;8.722;2023-07-20T02:04:20;3.83;;;2.70;;
26588;SDS011;14235;48.532;8.722;2023-07-20T02:06:45;3.78;;;2.60;;
26588;SDS011;14235;48.532;8.722;2023-07-20T02:09:11;3.13;;;2.83;;
26588;SDS011;14235;48.532;8.722;2023-07-20T02:11:36;2.85;;;2.65;;
26588;SDS011;14235;48.532;8.722;2023-07-20T02:14:02;2.70;;;2.50;;
26588;SDS011;14235;48.532;8.722;2023-07-20T02:16:28;3.85;;;2.75;;
26588;SDS011;14235;48.532;8.722;2023-07-20T02:18:53;4.22;;;3.10;;
26588;SDS011;14235;48.532;8.722;2023-07-20T02:21:21;3.90;;;3.08;;
26588;SDS011;14235;48.532;8.722;2023-07-20T02:23:47;3.00;;;2.80;;
26588;SDS011;14235;48.532;8.722;2023-07-20T02:26:13;2.83;;;2.50;;
26588;SDS011;14235;48.532;8.722;2023-07-20T02:28:39;4.72;;;3.15;;
26588;SDS011;14235;48.532;8.722;2023-07-20T02:31:04;3.20;;;2.90;;
26588;SDS011;14235;48.532;8.722;2023-07-20T02:33:30;3.00;;;2.80;;
26588;SDS011;14235;48.532;8.722;2023-07-20T02:35:55;4.35;;;2.88;;
26588;SDS011;14235;48.532;8.722;2023-07-20T02:38:21;3.28;;;2.90;;
26588;SDS011;14235;48.532;8.722;2023-07-20T02:40:46;2.70;;;2.50;;
26588;SDS011;14235;48.532;8.722;2023-07-20T02:43:12;3.20;;;2.90;;
26588;SDS011;14235;48.532;8.722;2023-07-20T02:45:41;3.38;;;3.00;;
26588;SDS011;14235;48.532;8.722;2023-07-20T02:48:07;4.45;;;3.00;;
26588;SDS011;14235;48.532;8.722;2023-07-20T02:50:33;3.03;;;2.83;;
26588;SDS011;14235;48.532;8.722;2023-07-20T02:53:00;4.15;;;2.83;;
26588;SDS011;14235;48.532;8.722;2023-07-20T02:55:25;3.33;;;2.90;;
26588;SDS011;14235;48.532;8.722;2023-07-20T02:57:51;4.72;;;2.70;;
26588;SDS011;14235;48.532;8.722;2023-07-20T03:00:17;3.40;;;3.10;;
26588;SDS011;14235;48.532;8.722;2023-07-20T03:02:44;3.40;;;3.00;;
26588;SDS011;14235;48.532;8.722;2023-07-20T03:05:12;3.60;;;3.30;;
26588;SDS011;14235;48.532;8.722;2023-07-20T03:07:38;3.17;;;2.75;;
26588;SDS011;14235;48.532;8.722;2023-07-20T03:10:04;4.43;;;2.80;;
26588;SDS011;14235;48.532;8.722;2023-07-20T03:12:34;4.68;;;3.00;;
26588;SDS011;14235;48.532;8.722;2023-07-20T03:14:59;3.10;;;2.80;;
26588;SDS011;14235;48.532;8.722;2023-07-20T03:17:25;3.00;;;2.80;;
26588;SDS011;14235;48.532;8.722;2023-07-20T03:19:51;3.55;;;3.10;;
26588;SDS011;14235;48.532;8.722;2023-07-20T03:22:16;2.88;;;2.67;;
26588;SDS011;14235;48.532;8.722;2023-07-20T03:24:42;3.10;;;2.90;;
26588;SDS011;14235;48.532;8.722;2023-07-20T03:27:08;4.47;;;2.78;;
26588;SDS011;14235;48.532;8.722;2023-07-20T03:29:33;2.78;;;2.58;;
26588;SDS011;14235;48.532;8.722;2023-07-20T03:31:59;3.78;;;3.00;;
26588;SDS011;14235;48.532;8.722;2023-07-20T03:34:25;3.40;;;3.08;;
26588;SDS011;14235;48.532;8.722;2023-07-20T03:36:51;3.33;;;3.05;;
26588;SDS011;14235;48.532;8.722;2023-07-20T03:39:16;3.33;;;2.90;;
26588;SDS011;14235;48.532;8.722;2023-07-20T03:41:42;3.30;;;3.00;;
26588;SDS011;14235;48.532;8.722;2023-07-20T03:44:08;4.60;;;2.53;;
26588;SDS011;14235;48.532;8.722;2023-07-20T03:46:33;3.75;;;3.03;;
26588;SDS011;14235;48.532;8.722;2023-07-20T03:48:59;3.90;;;2.85;;
26588;SDS011;14235;48.532;8.722;2023-07-20T03:51:25;3.75;;;3.05;;
26588;SDS011;14235;48.532;8.722;2023-07-20T03:53:51;3.75;;;2.75;;
26588;SDS011;14235;48.532;8.722;2023-07-20T03:56:17;4.03;;;2.88;;
26588;SDS011;14235;48.532;8.722;2023-07-20T03:58:43;3.17;;;2.83;;
26588;SDS011;14235;48.532;8.722;2023-07-20T04:01:08;5.13;;;3.08;;
26588;SDS011;14235;48.532;8.722;2023-07-20T04:03:34;3.30;;;3.00;;
26588;SDS011;14235;48.532;8.722;2023-07-20T04:06:01;3.25;;;2.78;;
26588;SDS011;14235;48.532;8.722;2023-07-20T04:08:27;3.10;;;2.85;;
26588;SDS011;14235;48.532;8.722;2023-07-20T04:10:52;2.70;;;2.50;;
26588;SDS011;14235;48.532;8.722;2023-07-20T04:13:18;4.80;;;2.92;;
26588;SDS011;14235;48.532;8.722;2023-07-20T04:15:44;2.83;;;2.55;;
26588;SDS011;14235;48.532;8.722;2023-07-20T04:18:09;2.72;;;2.53;;
26588;SDS011;14235;48.532;8.722;2023-07-20T04:20:35;4.68;;;2.92;;
26588;SDS011;14235;48.532;8.722;2023-07-20T04:23:00;3.35;;;3.05;;
26588;SDS011;14235;48.532;8.722;2023-07-20T04:25:26;2.63;;;2.50;;
26588;SDS011;14235;48.532;8.722;2023-07-20T04:27:52;4.65;;;3.10;;
26588;SDS011;14235;48.532;8.722;2023-07-20T04:30:18;4.80;;;2.85;;
26588;SDS011;14235;48.532;8.722;2023-07-20T04:32:47;3.65;;;3.15;;
26588;SDS011;14235;48.532;8.722;2023-07-20T04:35:17;4.45;;;2.97;;
26588;SDS011;14235;48.532;8.722;2023-07-20T04:38:04;3.17;;;2.88;;
26588;SDS011;14235;48.532;8.722;2023-07-20T04:40:30;4.22;;;3.28;;
26588;SDS011;14235;48.532;8.722;2023-07-20T04:42:55;3.28;;;2.97;;
26588;SDS011;14235;48.532;8.722;2023-07-20T04:45:21;4.30;;;2.83;;
26588;SDS011;14235;48.532;8.722;2023-07-20T04:47:49;3.20;;;2.90;;
26588;SDS011;14235;48.532;8.722;2023-07-20T04:50:16;5.25;;;2.92;;
26588;SDS011;14235;48.532;8.722;2023-07-20T04:52:41;3.58;;;3.03;;
26588;SDS011;14235;48.532;8.722;2023-07-20T04:55:07;3.40;;;3.05;;
26588;SDS011;14235;48.532;8.722;2023-07-20T04:57:33;4.70;;;3.20;;
26588;SDS011;14235;48.532;8.722;2023-07-20T04:59:58;3.00;;;2.78;;
26588;SDS011;14235;48.532;8.722;2023-07-20T05:02:24;3.45;;;3.05;;
26588;SDS011;14235;48.532;8.722;2023-07-20T05:04:50;4.85;;;2.70;;
26588;SDS011;14235;48.532;8.722;2023-07-20T05:07:15;2.88;;;2.60;;
26588;SDS011;14235;48.532;8.722;2023-07-20T05:09:41;5.97;;;3.10;;
26588;SDS011;14235;48.532;8.722;2023-07-20T05:12:06;2.85;;;2.65;;
26588;SDS011;14235;48.532;8.722;2023-07-20T05:14:32;6.35;;;3.03;;
26588;SDS011;14235;48.532;8.722;2023-07-20T05:16:58;3.15;;;2.85;;
26588;SDS011;14235;48.532;8.722;2023-07-20T05:19:24;3.22;;;2.70;;
26588;SDS011;14235;48.532;8.722;2023-07-20T05:21:50;3.20;;;2.53;;
26588;SDS011;14235;48.532;8.722;2023-07-20T05:24:16;2.85;;;2.65;;
26588;SDS011;14235;48.532;8.722;2023-07-20T05:26:42;4.72;;;2.80;;
26588;SDS011;14235;48.532;8.722;2023-07-20T05:29:07;3.63;;;3.17;;
26588;SDS011;14235;48.532;8.722;2023-07-20T05:31:33;3.92;;;3.03;;
26588;SDS011;14235;48.532;8.722;2023-07-20T05:33:59;4.13;;;3.28;;
26588;SDS011;14235;48.532;8.722;2023-07-20T05:36:24;4.28;;;3.20;;
26588;SDS011;14235;48.532;8.722;2023-07-20T05:38:50;3.05;;;2.85;;
26588;SDS011;14235;48.532;8.722;2023-07-20T05:41:16;3.70;;;2.78;;
26588;SDS011;14235;48.532;8.722;2023-07-20T05:43:41;3.53;;;3.22;;
26588;SDS011;14235;48.532;8.722;2023-07-20T05:46:07;3.08;;;2.88;;
26588;SDS011;14235;48.532;8.722;2023-07-20T05:48:33;5.53;;;3.50;;
26588;SDS011;14235;48.532;8.722;2023-07-20T05:50:58;6.07;;;3.15;;
26588;SDS011;14235;48.532;8.722;2023-07-20T05:53:24;4.18;;;3.08;;
26588;SDS011;14235;48.532;8.722;2023-07-20T05:55:53;4.22;;;3.20;;
26588;SDS011;14235;48.532;8.722;2023-07-20T05:58:19;5.22;;;3.80;;
26588;SDS011;14235;48.532;8.722;2023-07-20T06:00:48;5.57;;;3.28;;
26588;SDS011;14235;48.532;8.722;2023-07-20T06:03:15;3.13;;;2.80;;
26588;SDS011;14235;48.532;8.722;2023-07-20T06:05:46;4.90;;;3.15;;
26588;SDS011;14235;48.532;8.722;2023-07-20T06:08:12;3.75;;;3.40;;
26588;SDS011;14235;48.532;8.722;2023-07-20T06:10:39;3.63;;;3.38;;
26588;SDS011;14235;48.532;8.722;2023-07-20T06:13:04;4.97;;;3.38;;
26588;SDS011;14235;48.532;8.722;2023-07-20T06:15:32;3.47;;;3.15;;
26588;SDS011;14235;48.532;8.722;2023-07-20T06:18:00;3.83;;;3.10;;
26588;SDS011;14235;48.532;8.722;2023-07-20T06:20:26;3.47;;;3.17;;
26588;SDS011;14235;48.532;8.722;2023-07-20T06:22:52;4.78;;;3.58;;
26588;SDS011;14235;48.532;8.722;2023-07-20T06:25:17;4.15;;;2.88;;
26588;SDS011;14235;48.532;8.722;2023-07-20T06:27:43;8.13;;;3.30;;
26588;SDS011;14235;48.532;8.722;2023-07-20T06:30:09;4.47;;;3.00;;
26588;SDS011;14235;48.532;8.722;2023-07-20T06:32:35;3.33;;;3.03;;
26588;SDS011;14235;48.532;8.722;2023-07-20T06:35:01;6.75;;;2.85;;
26588;SDS011;14235;48.532;8.722;2023-07-20T06:37:26;3.20;;;2.92;;
26588;SDS011;14235;48.532;8.722;2023-07-20T06:39:52;3.20;;;2.90;;
26588;SDS011;14235;48.532;8.722;2023-07-20T06:42:17;5.22;;;3.85;;
26588;SDS011;14235;48.532;8.722;2023-07-20T06:44:43;5.45;;;3.65;;
26588;SDS011;14235;48.532;8.722;2023-07-20T06:47:09;3.20;;;2.90;;
26588;SDS011;14235;48.532;8.722;2023-07-20T06:49:34;3.15;;;2.83;;
26588;SDS011;14235;48.532;8.722;2023-07-20T06:52:00;3.25;;;2.75;;
26588;SDS011;14235;48.532;8.722;2023-07-20T06:54:26;4.72;;;2.75;;
26588;SDS011;14235;48.532;8.722;2023-07-20T06:56:51;5.03;;;2.83;;
26588;SDS011;14235;48.532;8.722;2023-07-20T06:59:17;3.80;;;2.60;;
26588;SDS011;14235;48.532;8.722;2023-07-20T07:01:43;5.03;;;2.40;;
26588;SDS011;14235;48.532;8.722;2023-07-20T07:04:09;3.33;;;2.50;;
26588;SDS011;14235;48.532;8.722;2023-07-20T07:06:34;4.03;;;2.65;;
26588;SDS011;14235;48.532;8.722;2023-07-20T07:09:02;3.92;;;2.90;;
26588;SDS011;14235;48.532;8.722;2023-07-20T07:11:28;4.45;;;2.80;;
26588;SDS011;14235;48.532;8.722;2023-07-20T07:13:54;5.45;;;2.30;;
26588;SDS011;14235;48.532;8.722;2023-07-20T07:16:19;4.53;;;2.55;;
26588;SDS011;14235;48.532;8.722;2023-07-20T07:18:45;3.45;;;2.78;;
26588;SDS011;14235;48.532;8.722;2023-07-20T07:21:11;5.90;;;2.72;;
26588;SDS011;14235;48.532;8.722;2023-07-20T07:23:37;3.60;;;2.85;;
26588;SDS011;14235;48.532;8.722;2023-07-20T07:26:03;2.88;;;2.67;;
26588;SDS011;14235;48.532;8.722;2023-07-20T07:28:29;2.72;;;2.53;;
26588;SDS011;14235;48.532;8.722;2023-07-20T07:30:56;3.20;;;2.90;;
26588;SDS011;14235;48.532;8.722;2023-07-20T07:33:22;3.88;;;2.55;;
26588;SDS011;14235;48.532;8.722;2023-07-20T07:35:49;3.40;;;2.50;;
26588;SDS011;14235;48.532;8.722;2023-07-20T07:38:18;4.18;;;2.83;;
26588;SDS011;14235;48.532;8.722;2023-07-20T07:40:44;3.53;;;3.00;;
26588;SDS011;14235;48.532;8.722;2023-07-20T07:43:09;2.67;;;2.47;;
26588;SDS011;14235;48.532;8.722;2023-07-20T07:45:35;2.72;;;2.53;;
26588;SDS011;14235;48.532;8.722;2023-07-20T07:48:04;2.47;;;2.25;;
26588;SDS011;14235;48.532;8.722;2023-07-20T07:50:30;3.83;;;2.50;;
26588;SDS011;14235;48.532;8.722;2023-07-20T07:52:57;4.57;;;2.50;;
26588;SDS011;14235;48.532;8.722;2023-07-20T07:55:22;4.43;;;2.58;;
26588;SDS011;14235;48.532;8.722;2023-07-20T07:57:49;2.60;;;2.40;;
26588;SDS011;14235;48.532;8.722;2023-07-20T08:00:15;2.55;;;2.35;;
26588;SDS011;14235;48.532;8.722;2023-07-20T08:02:44;2.63;;;2.40;;
26588;SDS011;14235;48.532;8.722;2023-07-20T08:05:11;6.85;;;2.35;;
26588;SDS011;14235;48.532;8.722;2023-07-20T08:07:37;7.57;;;2.70;;
26588;SDS011;14235;48.532;8.722;2023-07-20T08:10:03;4.18;;;2.40;;
26588;SDS011;14235;48.532;8.722;2023-07-20T08:12:29;3.25;;;2.40;;
26588;SDS011;14235;48.532;8.722;2023-07-20T08:14:55;2.53;;;2.30;;
26588;SDS011;14235;48.532;8.722;2023-07-20T08:17:21;2.40;;;2.20;;
26588;SDS011;14235;48.532;8.722;2023-07-20T08:19:47;2.30;;;2.10;;
26588;SDS011;14235;48.532;8.722;2023-07-20T08:22:12;3.67;;;2.10;;
26588;SDS011;14235;48.532;8.722;2023-07-20T08:24:42;2.35;;;2.10;;
26588;SDS011;14235;48.532;8.722;2023-07-20T08:27:08;2.75;;;2.10;;
26588;SDS011;14235;48.532;8.722;2023-07-20T08:29:34;2.20;;;2.08;;
26588;SDS011;14235;48.532;8.722;2023-07-20T08:32:00;2.85;;;1.95;;
26588;SDS011;14235;48.532;8.722;2023-07-20T08:34:27;2.90;;;1.83;;
26588;SDS011;14235;48.532;8.722;2023-07-20T08:36:53;3.60;;;2.03;;
26588;SDS011;14235;48.532;8.722;2023-07-20T08:39:18;2.92;;;2.00;;
26588;SDS011;14235;48.532;8.722;2023-07-20T08:41:46;2.58;;;2.05;;
26588;SDS011;14235;48.532;8.722;2023-07-20T08:44:12;3.03;;;2.22;;
26588;SDS011;14235;48.532;8.722;2023-07-20T08:46:38;2.80;;;2.33;;
26588;SDS011;14235;48.532;8.722;2023-07-20T08:49:05;2.15;;;1.90;;
26588;SDS011;14235;48.532;8.722;2023-07-20T08:51:31;2.40;;;2.20;;
26588;SDS011;14235;48.532;8.722;2023-07-20T08:53:58;4.38;;;1.80;;
26588;SDS011;14235;48.532;8.722;2023-07-20T08:56:25;3.20;;;1.55;;
26588;SDS011;14235;48.532;8.722;2023-07-20T08:58:51;1.90;;;1.80;;
26588;SDS011;14235;48.532;8.722;2023-07-20T09:01:19;1.88;;;1.77;;
26588;SDS011;14235;48.532;8.722;2023-07-20T09:03:45;3.00;;;1.95;;
26588;SDS011;14235;48.532;8.722;2023-07-20T09:06:11;1.83;;;1.73;;
26588;SDS011;14235;48.532;8.722;2023-07-20T09:08:41;2.22;;;1.65;;
26588;SDS011;14235;48.532;8.722;2023-07-20T09:11:07;2.38;;;1.77;;
26588;SDS011;14235;48.532;8.722;2023-07-20T09:13:34;2.10;;;1.65;;
26588;SDS011;14235;48.532;8.722;2023-07-20T09:16:00;1.70;;;1.55;;
26588;SDS011;14235;48.532;8.722;2023-07-20T09:18:26;2.53;;;1.70;;
26588;SDS011;14235;48.532;8.722;2023-07-20T09:21:27;1.67;;;1.58;;
26588;SDS011;14235;48.532;8.722;2023-07-20T09:23:46;2.03;;;1.80;;
26588;SDS011;14235;48.532;8.722;2023-07-20T09:26:13;4.95;;;1.60;;
26588;SDS011;14235;48.532;8.722;2023-07-20T09:28:47;1.67;;;1.58;;
26588;SDS011;14235;48.532;8.722;2023-07-20T09:31:18;2.92;;;1.90;;
26588;SDS011;14235;48.532;8.722;2023-07-20T09:33:45;1.70;;;1.60;;
26588;SDS011;14235;48.532;8.722;2023-07-20T09:36:12;1.90;;;1.75;;
26588;SDS011;14235;48.532;8.722;2023-07-20T09:38:38;1.50;;;1.40;;
26588;SDS011;14235;48.532;8.722;2023-07-20T09:41:13;2.80;;;1.67;;
26588;SDS011;14235;48.532;8.722;2023-07-20T09:43:43;1.85;;;1.60;;
26588;SDS011;14235;48.532;8.722;2023-07-20T09:46:10;1.90;;;1.67;;
26588;SDS011;14235;48.532;8.722;2023-07-20T09:48:36;1.77;;;1.58;;
26588;SDS011;14235;48.532;8.722;2023-07-20T09:51:01;1.77;;;1.67;;
26588;SDS011;14235;48.532;8.722;2023-07-20T09:53:28;1.67;;;1.58;;
26588;SDS011;14235;48.532;8.722;2023-07-20T09:55:54;2.40;;;1.73;;
26588;SDS011;14235;48.532;8.722;2023-07-20T09:58:21;1.98;;;1.88;;
26588;SDS011;14235;48.532;8.722;2023-07-20T10:00:47;1.88;;;1.77;;
26588;SDS011;14235;48.532;8.722;2023-07-20T10:03:20;1.75;;;1.65;;
26588;SDS011;14235;48.532;8.722;2023-07-20T10:05:51;1.60;;;1.50;;
26588;SDS011;14235;48.532;8.722;2023-07-20T10:08:20;2.70;;;1.83;;
26588;SDS011;14235;48.532;8.722;2023-07-20T10:10:48;1.70;;;1.60;;
26588;SDS011;14235;48.532;8.722;2023-07-20T10:13:17;1.92;;;1.83;;
26588;SDS011;14235;48.532;8.722;2023-07-20T10:15:46;2.78;;;1.63;;
26588;SDS011;14235;48.532;8.722;2023-07-20T10:18:30;4.45;;;1.75;;
26588;SDS011;14235;48.532;8.722;2023-07-20T10:21:17;2.05;;;1.70;;
26588;SDS011;14235;48.532;8.722;2023-07-20T10:23:44;3.90;;;1.65;;
26588;SDS011;14235;48.532;8.722;2023-07-20T10:26:11;1.83;;;1.73;;
26588;SDS011;14235;48.532;8.722;2023-07-20T10:28:38;2.15;;;1.85;;
26588;SDS011;14235;48.532;8.722;2023-07-20T10:31:04;1.85;;;1.60;;
26588;SDS011;14235;48.532;8.722;2023-07-20T10:33:32;2.17;;;1.65;;
26588;SDS011;14235;48.532;8.722;2023-07-20T10:36:02;1.67;;;1.58;;
26588;SDS011;14235;48.532;8.722;2023-07-20T10:43:44;3.65;;;1.70;;
26588;SDS011;14235;48.532;8.722;2023-07-20T10:46:13;3.05;;;1.77;;
26588;SDS011;14235;48.532;8.722;2023-07-20T10:51:24;3.28;;;1.88;;
26588;SDS011;14235;48.532;8.722;2023-07-20T10:53:50;2.22;;;2.03;;
26588;SDS011;14235;48.532;8.722;2023-07-20T10:56:21;2.30;;;2.10;;
26588;SDS011;14235;48.532;8.722;2023-07-20T10:59:17;2.00;;;1.80;;
26588;SDS011;14235;48.532;8.722;2023-07-20T11:01:46;1.88;;;1.77;;
26588;SDS011;14235;48.532;8.722;2023-07-20T11:04:14;2.58;;;1.70;;
26588;SDS011;14235;48.532;8.722;2023-07-20T11:06:43;1.70;;;1.60;;
26588;SDS011;14235;48.532;8.722;2023-07-20T11:14:21;2.72;;;1.70;;
26588;SDS011;14235;48.532;8.722;2023-07-20T11:16:47;1.90;;;1.80;;
26588;SDS011;14235;48.532;8.722;2023-07-20T11:21:49;2.75;;;1.63;;
26588;SDS011;14235;48.532;8.722;2023-07-20T11:24:16;2.70;;;1.67;;
26588;SDS011;14235;48.532;8.722;2023-07-20T11:26:46;2.17;;;1.98;;
26588;SDS011;14235;48.532;8.722;2023-07-20T11:29:16;2.50;;;1.70;;
26588;SDS011;14235;48.532;8.722;2023-07-20T11:31:43;2.20;;;2.08;;
26588;SDS011;14235;48.532;8.722;2023-07-20T11:34:13;3.45;;;1.70;;
26588;SDS011;14235;48.532;8.722;2023-07-20T11:36:43;1.73;;;1.63;;
26588;SDS011;14235;48.532;8.722;2023-07-20T11:39:11;1.80;;;1.70;;
26588;SDS011;14235;48.532;8.722;2023-07-20T11:41:46;1.63;;;1.52;;
26588;SDS011;14235;48.532;8.722;2023-07-20T11:44:13;1.70;;;1.60;;
26588;SDS011;14235;48.532;8.722;2023-07-20T11:46:40;3.35;;;1.70;;
26588;SDS011;14235;48.532;8.722;2023-07-20T11:49:07;1.60;;;1.50;;
26588;SDS011;14235;48.532;8.722;2023-07-20T11:51:34;3.58;;;1.75;;
26588;SDS011;14235;48.532;8.722;2023-07-20T11:54:01;2.40;;;1.70;;
26588;SDS011;14235;48.532;8.722;2023-07-20T11:56:27;2.20;;;1.92;;
26588;SDS011;14235;48.532;8.722;2023-07-20T11:58:59;2.22;;;1.70;;
26588;SDS011;14235;48.532;8.722;2023-07-20T12:01:27;2.03;;;1.80;;
26588;SDS011;14235;48.532;8.722;2023-07-20T12:03:56;2.78;;;1.77;;
26588;SDS011;14235;48.532;8.722;2023-07-20T12:06:23;3.67;;;1.70;;
26588;SDS011;14235;48.532;8.722;2023-07-20T12:08:50;3.22;;;1.77;;
26588;SDS011;14235;48.532;8.722;2023-07-20T12:11:33;2.60;;;1.73;;
26588;SDS011;14235;48.532;8.722;2023-07-20T12:13:59;1.80;;;1.67;;
26588;SDS011;14235;48.532;8.722;2023-07-20T12:16:29;1.88;;;1.75;;
26588;SDS011;14235;48.532;8.722;2023-07-20T12:21:27;1.42;;;1.35;;
26588;SDS011;14235;48.532;8.722;2023-07-20T12:23:53;1.80;;;1.70;;
26588;SDS011;14235;48.532;8.722;2023-07-20T12:26:22;1.95;;;1.60;;
26588;SDS011;14235;48.532;8.722;2023-07-20T12:28:49;2.20;;;1.70;;
26588;SDS011;14235;48.532;8.722;2023-07-20T12:31:15;1.50;;;1.40;;
26588;SDS011;14235;48.532;8.722;2023-07-20T12:33:40;2.55;;;1.80;;
26588;SDS011;14235;48.532;8.722;2023-07-20T12:36:07;2.10;;;1.90;;
26588;SDS011;14235;48.532;8.722;2023-07-20T12:38:33;1.73;;;1.50;;
26588;SDS011;14235;48.532;8.722;2023-07-20T12:41:02;2.13;;;1.88;;
26588;SDS011;14235;48.532;8.722;2023-07-20T12:43:28;2.10;;;1.92;;
26588;SDS011;14235;48.532;8.722;2023-07-20T12:45:55;2.67;;;1.80;;
26588;SDS011;14235;48.532;8.722;2023-07-20T12:48:21;1.92;;;1.70;;
26588;SDS011;14235;48.532;8.722;2023-07-20T12:50:47;2.10;;;1.92;;
26588;SDS011;14235;48.532;8.722;2023-07-20T12:53:13;1.98;;;1.70;;
26588;SDS011;14235;48.532;8.722;2023-07-20T12:55:39;2.13;;;1.77;;
26588;SDS011;14235;48.532;8.722;2023-07-20T12:58:06;3.72;;;1.80;;
26588;SDS011;14235;48.532;8.722;2023-07-20T13:00:31;2.08;;;1.65;;
26588;SDS011;14235;48.532;8.722;2023-07-20T13:02:57;4.00;;;1.88;;
26588;SDS011;14235;48.532;8.722;2023-07-20T13:05:23;2.13;;;2.00;;
26588;SDS011;14235;48.532;8.722;2023-07-20T13:07:48;1.85;;;1.63;;
26588;SDS011;14235;48.532;8.722;2023-07-20T13:10:14;2.00;;;1.77;;
26588;SDS011;14235;48.532;8.722;2023-07-20T13:12:40;1.95;;;1.67;;
26588;SDS011;14235;48.532;8.722;2023-07-20T13:15:06;1.85;;;1.75;;
26588;SDS011;14235;48.532;8.722;2023-07-20T13:17:33;2.15;;;1.60;;
26588;SDS011;14235;48.532;8.722;2023-07-20T13:20:06;2.28;;;1.90;;
26588;SDS011;14235;48.532;8.722;2023-07-20T13:22:35;3.03;;;1.73;;
26588;SDS011;14235;48.532;8.722;2023-07-20T13:25:01;3.72;;;1.80;;
26588;SDS011;14235;48.532;8.722;2023-07-20T13:27:26;2.15;;;1.75;;
26588;SDS011;14235;48.532;8.722;2023-07-20T13:29:52;2.13;;;1.67;;
26588;SDS011;14235;48.532;8.722;2023-07-20T13:32:18;2.10;;;2.00;;
26588;SDS011;14235;48.532;8.722;2023-07-20T13:34:44;2.00;;;1.90;;
26588;SDS011;14235;48.532;8.722;2023-07-20T13:37:10;1.83;;;1.73;;
26588;SDS011;14235;48.532;8.722;2023-07-20T13:39:37;2.53;;;1.92;;
26588;SDS011;14235;48.532;8.722;2023-07-20T13:42:03;1.60;;;1.50;;
26588;SDS011;14235;48.532;8.722;2023-07-20T13:44:30;1.80;;;1.70;;
26588;SDS011;14235;48.532;8.722;2023-07-20T13:46:56;1.70;;;1.60;;
26588;SDS011;14235;48.532;8.722;2023-07-20T13:49:22;2.38;;;1.63;;
26588;SDS011;14235;48.532;8.722;2023-07-20T13:51:48;2.05;;;1.95;;
26588;SDS011;14235;48.532;8.722;2023-07-20T13:54:13;2.05;;;1.88;;
26588;SDS011;14235;48.532;8.722;2023-07-20T13:56:39;2.00;;;1.80;;
26588;SDS011;14235;48.532;8.722;2023-07-20T13:59:05;3.05;;;1.92;;
26588;SDS011;14235;48.532;8.722;2023-07-20T14:01:35;3.08;;;2.00;;
26588;SDS011;14235;48.532;8.722;2023-07-20T14:07:08;2.05;;;1.85;;
26588;SDS011;14235;48.532;8.722;2023-07-20T14:09:34;1.90;;;1.80;;
26588;SDS011;14235;48.532;8.722;2023-07-20T14:12:00;2.17;;;1.98;;
26588;SDS011;14235;48.532;8.722;2023-07-20T14:14:25;2.75;;;2.03;;
26588;SDS011;14235;48.532;8.722;2023-07-20T14:16:51;3.83;;;2.00;;
26588;SDS011;14235;48.532;8.722;2023-07-20T14:19:16;2.85;;;1.77;;
26588;SDS011;14235;48.532;8.722;2023-07-20T14:21:42;2.03;;;1.80;;
26588;SDS011;14235;48.532;8.722;2023-07-20T14:24:07;1.92;;;1.70;;
26588;SDS011;14235;48.532;8.722;2023-07-20T14:26:33;2.83;;;1.83;;
26588;SDS011;14235;48.532;8.722;2023-07-20T14:29:00;2.67;;;2.03;;
26588;SDS011;14235;48.532;8.722;2023-07-20T14:31:26;2.42;;;2.22;;
26588;SDS011;14235;48.532;8.722;2023-07-20T14:33:52;2.60;;;1.80;;
26588;SDS011;14235;48.532;8.722;2023-07-20T14:36:18;2.60;;;1.95;;
26588;SDS011;14235;48.532;8.722;2023-07-20T14:38:43;1.90;;;1.80;;
26588;SDS011;14235;48.532;8.722;2023-07-20T14:41:09;4.70;;;2.08;;
26588;SDS011;14235;48.532;8.722;2023-07-20T14:43:34;1.70;;;1.60;;
26588;SDS011;14235;48.532;8.722;2023-07-20T14:46:00;2.75;;;1.70;;
26588;SDS011;14235;48.532;8.722;2023-07-20T14:48:26;1.90;;;1.80;;
26588;SDS011;14235;48.532;8.722;2023-07-20T14:50:51;2.30;;;1.73;;
26588;SDS011;14235;48.532;8.722;2023-07-20T14:53:17;2.75;;;1.95;;
26588;SDS011;14235;48.532;8.722;2023-07-20T14:55:43;2.03;;;1.88;;
26588;SDS011;14235;48.532;8.722;2023-07-20T14:58:09;1.95;;;1.65;;
26588;SDS011;14235;48.532;8.722;2023-07-20T15:00:34;3.75;;;1.55;;
26588;SDS011;14235;48.532;8.722;2023-07-20T15:03:00;3.70;;;2.00;;
26588;SDS011;14235;48.532;8.722;2023-07-20T15:05:26;2.10;;;1.90;;
26588;SDS011;14235;48.532;8.722;2023-07-20T15:07:52;3.92;;;1.80;;
26588;SDS011;14235;48.532;8.722;2023-07-20T15:10:18;3.28;;;2.00;;
26588;SDS011;14235;48.532;8.722;2023-07-20T15:12:44;1.92;;;1.67;;
26588;SDS011;14235;48.532;8.722;2023-07-20T15:15:11;2.22;;;1.80;;
26588;SDS011;14235;48.532;8.722;2023-07-20T15:17:39;2.20;;;1.50;;
26588;SDS011;14235;48.532;8.722;2023-07-20T15:20:06;2.05;;;1.70;;